createdAt,value
2023-05-11T00:00:13.533Z,10.20
2023-05-11T00:05:15.905Z,8.98
2023-05-11T00:10:17.993Z,8.27
2023-05-11T00:15:19.984Z,9.88
2023-05-11T00:20:23.432Z,9.82
2023-05-11T00:25:25.825Z,9.70
2023-05-11T00:30:27.527Z,9.07
2023-05-11T00:35:29.365Z,9.45
2023-05-11T00:40:34.550Z,8.85
2023-05-11T00:45:36.662Z,9.10
2023-05-11T00:50:39.837Z,9.55
2023-05-11T00:55:42.966Z,8.13
2023-05-11T01:00:44.882Z,6.60
2023-05-11T01:06:05.611Z,7.93
2023-05-11T01:11:17.778Z,7.95
2023-05-11T01:16:22.389Z,8.13
2023-05-11T01:21:25.496Z,7.22
2023-05-11T01:26:58.337Z,8.30
2023-05-11T01:32:06.369Z,7.95
2023-05-11T01:37:18.082Z,8.55
2023-05-11T01:42:25.073Z,8.00
2023-05-11T01:47:30.245Z,7.40
2023-05-11T01:52:33.671Z,8.75
2023-05-11T01:57:38.240Z,9.13
2023-05-11T02:02:41.223Z,9.48
2023-05-11T02:07:44.856Z,7.72
2023-05-11T02:12:52.804Z,12.88
2023-05-11T02:17:57.363Z,9.25
2023-05-11T02:23:00.740Z,9.20
2023-05-11T02:28:02.563Z,9.50
2023-05-11T02:33:08.460Z,11.90
2023-05-11T02:38:11.246Z,10.75
2023-05-11T02:43:18.960Z,9.00
2023-05-11T02:48:30.332Z,9.25
2023-05-11T02:53:33.639Z,9.82
2023-05-11T02:58:35.898Z,9.43
2023-05-11T03:03:37.957Z,10.13
2023-05-11T03:08:42.900Z,9.63
2023-05-11T03:13:45.807Z,10.35
2023-05-11T03:18:49.925Z,10.32
2023-05-11T03:23:52.561Z,10.82
2023-05-11T03:28:57.177Z,12.77
2023-05-11T03:33:59.188Z,11.63
2023-05-11T03:39:04.702Z,11.20
2023-05-11T03:44:08.423Z,12.38
2023-05-11T03:49:12.743Z,13.07
2023-05-11T03:54:15.896Z,11.50
2023-05-11T03:59:18.320Z,10.27
2023-05-11T04:04:29.576Z,10.88
2023-05-11T04:09:32.835Z,11.40
2023-05-11T04:14:35.685Z,13.35
2023-05-11T04:19:39.269Z,12.20
2023-05-11T04:24:41.147Z,11.57
2023-05-11T04:29:42.991Z,12.02
2023-05-11T04:34:45.063Z,14.40
2023-05-11T04:39:48.078Z,16.55
2023-05-11T04:44:54.285Z,13.68
2023-05-11T04:49:56.772Z,10.57
2023-05-11T04:55:00.082Z,12.07
2023-05-11T05:00:02.327Z,12.77
2023-05-11T05:05:04.398Z,11.57
2023-05-11T05:10:09.001Z,13.18
2023-05-11T05:15:11.799Z,11.25
2023-05-11T05:20:13.715Z,14.68
2023-05-11T05:25:17.147Z,12.85
2023-05-11T05:30:19.370Z,14.10
2023-05-11T05:35:21.724Z,12.63
2023-05-11T05:40:24.994Z,11.77
2023-05-11T05:45:27.124Z,12.40
2023-05-11T05:50:30.582Z,12.60
2023-05-11T05:55:32.496Z,12.55
2023-05-11T06:00:36.350Z,11.10
2023-05-11T06:05:39.846Z,11.65
2023-05-11T06:10:41.652Z,10.85
2023-05-11T06:15:44.127Z,12.65
2023-05-11T06:20:46.095Z,11.63
2023-05-11T06:25:47.904Z,8.18
2023-05-11T06:30:49.887Z,8.70
2023-05-11T06:35:52.210Z,8.75
2023-05-11T06:40:54.040Z,8.55
2023-05-11T06:45:55.928Z,9.57
2023-05-11T06:50:57.867Z,10.70
2023-05-11T06:55:59.770Z,12.18
2023-05-11T07:01:02.408Z,10.05
2023-05-11T07:06:05.779Z,17.08
2023-05-11T07:11:07.952Z,10.27
2023-05-11T07:16:09.881Z,12.07
2023-05-11T07:21:11.674Z,13.05
2023-05-11T07:26:13.954Z,10.05
2023-05-11T07:31:15.751Z,11.23
2023-05-11T07:36:17.502Z,11.32
2023-05-11T07:41:21.249Z,16.25
2023-05-11T07:46:23.096Z,12.57
2023-05-11T07:51:26.183Z,9.70
2023-05-11T07:56:28.100Z,12.90
2023-05-11T08:01:31.419Z,13.55
2023-05-11T08:06:33.304Z,10.73
2023-05-11T08:11:35.564Z,9.70
2023-05-11T08:16:38.572Z,9.38
2023-05-11T08:21:40.411Z,11.32
2023-05-11T08:26:43.103Z,8.75
2023-05-11T08:31:47.647Z,8.23
2023-05-11T08:36:53.259Z,9.95
2023-05-11T08:42:00.271Z,8.73
2023-05-11T08:47:21.275Z,7.15
2023-05-11T08:52:26.751Z,7.80
2023-05-11T08:57:31.932Z,8.05
2023-05-11T09:02:35.682Z,9.70
2023-05-11T09:07:42.074Z,8.65
2023-05-11T09:12:44.407Z,10.07
2023-05-11T09:17:46.281Z,7.35
2023-05-11T09:22:48.230Z,8.95
2023-05-11T09:27:50.393Z,6.93
2023-05-11T09:33:01.014Z,5.82
2023-05-11T09:38:11.885Z,6.35
2023-05-11T09:43:24.179Z,6.82
2023-05-11T09:48:31.945Z,19.95
2023-05-11T09:53:46.037Z,8.07
2023-05-11T09:58:57.418Z,5.93
2023-05-11T10:04:13.925Z,4.60
2023-05-11T10:09:28.838Z,4.32
2023-05-11T10:14:32.364Z,6.05
2023-05-11T10:19:34.645Z,5.50
2023-05-11T10:24:37.136Z,6.35
2023-05-11T10:29:39.134Z,5.18
2023-05-11T10:34:42.264Z,6.35
2023-05-11T10:39:50.294Z,5.60
2023-05-11T10:45:15.455Z,5.78
2023-05-11T10:50:27.980Z,5.15
2023-05-11T10:55:41.949Z,7.25
2023-05-11T11:01:02.867Z,6.22
2023-05-11T11:06:07.526Z,9.90
2023-05-11T11:11:47.019Z,6.03
2023-05-11T11:17:17.218Z,6.35
2023-05-11T11:22:34.804Z,6.43
2023-05-11T11:27:46.021Z,6.95
2023-05-11T11:32:53.347Z,5.97
2023-05-11T11:38:04.412Z,5.10
2023-05-11T11:43:20.266Z,4.78
2023-05-11T11:48:36.059Z,6.05
2023-05-11T11:53:43.700Z,5.82
2023-05-11T11:58:46.137Z,6.68
2023-05-11T12:04:11.306Z,6.97
2023-05-11T12:09:20.119Z,5.00
2023-05-11T12:14:22.864Z,4.15
2023-05-11T12:19:25.185Z,4.90
2023-05-11T12:24:27.026Z,4.72
2023-05-11T12:29:28.910Z,6.00
2023-05-11T12:34:30.843Z,4.78
2023-05-11T12:39:32.816Z,4.13
2023-05-11T12:44:34.848Z,3.83
2023-05-11T12:49:36.850Z,4.57
2023-05-11T12:54:43.518Z,5.03
2023-05-11T12:59:47.867Z,4.90
2023-05-11T13:04:49.833Z,6.50
2023-05-11T13:10:01.089Z,4.90
2023-05-11T13:15:12.861Z,5.32
2023-05-11T13:20:33.889Z,5.22
2023-05-11T13:25:53.484Z,5.15
2023-05-11T13:31:01.992Z,5.18
2023-05-11T13:36:04.418Z,5.45
2023-05-11T13:41:08.211Z,4.88
2023-05-11T13:46:10.031Z,5.63
2023-05-11T13:51:12.569Z,5.95
2023-05-11T13:56:14.503Z,4.28
2023-05-11T14:01:21.910Z,4.28
2023-05-11T14:06:25.870Z,3.20
2023-05-11T14:11:27.733Z,4.38
2023-05-11T14:16:30.123Z,5.95
2023-05-11T14:21:33.118Z,4.75
2023-05-11T14:26:35.013Z,3.83
2023-05-11T14:31:37.174Z,6.55
2023-05-11T14:36:39.244Z,6.90
2023-05-11T14:41:41.201Z,5.85
2023-05-11T14:46:46.119Z,4.93
2023-05-11T14:51:49.018Z,5.53
2023-05-11T14:56:56.197Z,5.43
2023-05-11T15:01:58.650Z,5.15
2023-05-11T15:07:00.890Z,6.63
2023-05-11T15:12:04.615Z,3.80
2023-05-11T15:17:06.465Z,3.30
2023-05-11T15:22:08.576Z,6.78
2023-05-11T15:27:10.516Z,3.80
2023-05-11T15:32:14.535Z,3.30
2023-05-11T15:37:16.411Z,3.35
2023-05-11T15:42:18.470Z,2.67
2023-05-11T15:47:20.659Z,3.03
2023-05-11T15:52:22.512Z,3.40
2023-05-11T15:57:24.299Z,2.60
2023-05-11T16:02:26.461Z,4.22
2023-05-11T16:07:28.661Z,3.70
2023-05-11T16:12:30.509Z,5.68
2023-05-11T16:17:32.419Z,3.38
2023-05-11T16:22:36.130Z,3.10
2023-05-11T16:27:38.023Z,3.03
2023-05-11T16:32:40.349Z,2.88
2023-05-11T16:37:42.997Z,3.20
2023-05-11T16:42:46.851Z,2.53
2023-05-11T16:47:48.893Z,4.72
2023-05-11T16:52:51.122Z,5.00
2023-05-11T16:57:53.108Z,2.92
2023-05-11T17:02:55.084Z,4.43
2023-05-11T17:07:57.040Z,2.55
2023-05-11T17:12:59.105Z,2.67
2023-05-11T17:18:01.270Z,4.28
2023-05-11T17:23:03.201Z,3.85
2023-05-11T17:28:05.196Z,3.03
2023-05-11T17:33:07.596Z,3.30
2023-05-11T17:38:10.291Z,3.78
2023-05-11T17:43:13.283Z,4.20
2023-05-11T17:48:15.122Z,5.00
2023-05-11T17:53:17.124Z,4.72
2023-05-11T17:58:19.186Z,4.93
2023-05-11T18:03:22.090Z,4.43
2023-05-11T18:08:24.036Z,2.78
2023-05-11T18:13:27.392Z,3.10
2023-05-11T18:18:29.456Z,4.38
2023-05-11T18:23:31.551Z,2.63
2023-05-11T18:28:34.562Z,3.08
2023-05-11T18:33:37.638Z,4.32
2023-05-11T18:38:39.476Z,4.47
2023-05-11T18:43:44.578Z,5.53
2023-05-11T18:48:46.506Z,5.63
2023-05-11T18:53:49.660Z,4.55
2023-05-11T18:58:51.505Z,5.50
2023-05-11T19:03:53.959Z,3.53
2023-05-11T19:08:55.882Z,7.25
2023-05-11T19:13:57.789Z,3.20
2023-05-11T19:18:59.793Z,4.18
2023-05-11T19:24:01.687Z,3.00
2023-05-11T19:29:04.802Z,3.90
2023-05-11T19:34:07.284Z,2.80
2023-05-11T19:39:09.746Z,4.45
2023-05-11T19:44:11.676Z,4.03
2023-05-11T19:49:15.162Z,5.95
2023-05-11T19:54:18.359Z,4.47
2023-05-11T19:59:27.386Z,4.57
2023-05-11T20:04:30.509Z,3.63
2023-05-11T20:09:33.981Z,5.13
2023-05-11T20:14:40.747Z,6.18
2023-05-11T20:19:42.615Z,8.60
2023-05-11T20:24:45.002Z,2.88
2023-05-11T20:29:46.757Z,4.88
2023-05-11T20:34:49.865Z,3.55
2023-05-11T20:39:53.563Z,3.42
2023-05-11T20:44:55.677Z,3.83
2023-05-11T20:49:57.548Z,4.85
2023-05-11T20:55:00.862Z,4.60
2023-05-11T21:00:04.667Z,4.70
2023-05-11T21:05:07.722Z,3.78
2023-05-11T21:10:12.429Z,5.80
2023-05-11T21:15:14.333Z,3.60
2023-05-11T21:20:16.431Z,3.97
2023-05-11T21:25:18.810Z,4.35
2023-05-11T21:30:21.160Z,2.83
2023-05-11T21:35:23.961Z,5.65
2023-05-11T21:40:25.849Z,3.60
2023-05-11T21:45:27.687Z,5.03
2023-05-11T21:50:29.535Z,2.90
2023-05-11T21:55:31.519Z,3.63
2023-05-11T22:00:34.831Z,2.88
2023-05-11T22:05:36.708Z,3.28
2023-05-11T22:10:38.550Z,3.58
2023-05-11T22:15:41.028Z,4.82
2023-05-11T22:20:42.907Z,2.92
2023-05-11T22:25:45.996Z,3.65
2023-05-11T22:30:47.815Z,5.38
2023-05-11T22:35:49.672Z,4.82
2023-05-11T22:40:51.503Z,5.53
2023-05-11T22:45:53.466Z,3.80
2023-05-11T22:50:55.295Z,3.17
2023-05-11T22:55:57.463Z,4.65
2023-05-11T23:00:59.381Z,4.50
2023-05-11T23:06:02.314Z,3.40
2023-05-11T23:11:04.454Z,4.18
2023-05-11T23:16:06.367Z,6.13
2023-05-11T23:21:08.399Z,3.70
2023-05-11T23:26:10.588Z,4.97
2023-05-11T23:31:13.544Z,4.15
2023-05-11T23:36:16.261Z,4.60
2023-05-11T23:41:18.138Z,3.42
2023-05-11T23:46:23.545Z,5.45
2023-05-11T23:51:25.945Z,5.53
2023-05-11T23:56:28.014Z,4.82
